createdAt,value
2022-07-30T00:01:14.716Z,101182.75
2022-07-30T00:03:41.633Z,101175.41
2022-07-30T00:06:08.435Z,101172.66
2022-07-30T00:08:35.091Z,101179.41
2022-07-30T00:11:01.751Z,101173.72
2022-07-30T00:13:28.378Z,101179.19
2022-07-30T00:15:54.998Z,101168.06
2022-07-30T00:18:22.325Z,101170.16
2022-07-30T00:20:49.470Z,101166.59
2022-07-30T00:23:17.350Z,101173.94
2022-07-30T00:25:44.377Z,101174.34
2022-07-30T00:28:11.231Z,101170.56
2022-07-30T00:30:38.861Z,101175.84
2022-07-30T00:33:05.565Z,101166.59
2022-07-30T00:35:35.144Z,101169.75
2022-07-30T00:38:02.016Z,101169.56
2022-07-30T00:40:28.887Z,101177.06
2022-07-30T00:42:55.485Z,101176.25
2022-07-30T00:45:22.123Z,101165.56
2022-07-30T00:47:48.724Z,101172.69
2022-07-30T00:50:15.973Z,101169.34
2022-07-30T00:52:43.131Z,101169.34
2022-07-30T00:55:12.202Z,101160.16
2022-07-30T00:57:39.445Z,101156.78
2022-07-30T01:00:09.774Z,101156.16
2022-07-30T01:02:36.488Z,101161.38
2022-07-30T01:05:04.136Z,101172.28
2022-07-30T01:07:30.730Z,101166.84
2022-07-30T01:09:57.651Z,101168.50
2022-07-30T01:12:26.843Z,101160.56
2022-07-30T01:14:56.321Z,101155.53
2022-07-30T01:17:23.076Z,101157.44
2022-07-30T01:19:52.585Z,101154.91
2022-07-30T01:22:26.635Z,101151.13
2022-07-30T01:25:04.394Z,101153.03
2022-07-30T01:27:35.303Z,101147.38
2022-07-30T01:30:05.154Z,101160.97
2022-07-30T01:32:34.854Z,101157.44
2022-07-30T01:35:04.128Z,101159.75
2022-07-30T01:37:33.973Z,101154.31
2022-07-30T01:40:01.075Z,101153.44
2022-07-30T01:42:29.676Z,101149.25
2022-07-30T01:44:58.557Z,101152.81
2022-07-30T01:47:26.548Z,101153.03
2022-07-30T01:49:54.786Z,101156.59
2022-07-30T01:52:23.414Z,101150.97
2022-07-30T01:54:52.362Z,101154.53
2022-07-30T01:57:21.189Z,101154.53
2022-07-30T01:59:50.521Z,101147.19
2022-07-30T02:02:18.241Z,101147.19
2022-07-30T02:04:45.089Z,101150.09
2022-07-30T02:07:20.041Z,101149.91
2022-07-30T02:09:55.536Z,101149.25
2022-07-30T02:12:31.043Z,101150.75
2022-07-30T02:15:10.562Z,101146.75
2022-07-30T02:17:49.876Z,101142.97
2022-07-30T02:20:17.629Z,101142.13
2022-07-30T02:22:46.674Z,101134.41
2022-07-30T02:25:18.818Z,101134.84
2022-07-30T02:27:51.457Z,101136.28
2022-07-30T02:30:18.877Z,101137.78
2022-07-30T02:32:48.321Z,101144.06
2022-07-30T02:35:20.215Z,101143.63
2022-07-30T02:37:50.708Z,101141.34
2022-07-30T02:40:20.297Z,101140.47
2022-07-30T02:42:51.436Z,101139.63
2022-07-30T02:45:20.139Z,101140.06
2022-07-30T02:47:51.655Z,101138.81
2022-07-30T02:50:20.381Z,101139.66
2022-07-30T02:52:49.485Z,101135.44
2022-07-30T02:55:18.086Z,101137.16
2022-07-30T02:57:46.823Z,101127.94
2022-07-30T03:00:14.180Z,101127.72
2022-07-30T03:02:43.703Z,101124.19
2022-07-30T03:05:13.707Z,101125.41
2022-07-30T03:07:40.814Z,101128.16
2022-07-30T03:10:09.486Z,101122.91
2022-07-30T03:12:38.565Z,101131.53
2022-07-30T03:15:06.430Z,101129.41
2022-07-30T03:17:38.776Z,101130.66
2022-07-30T03:20:10.435Z,101129.19
2022-07-30T03:22:41.917Z,101129.81
2022-07-30T03:25:10.241Z,101126.47
2022-07-30T03:27:38.584Z,101134.66
2022-07-30T03:30:06.489Z,101131.94
2022-07-30T03:32:35.016Z,101137.13
2022-07-30T03:35:06.356Z,101132.09
2022-07-30T03:37:36.294Z,101137.13
2022-07-30T03:40:04.263Z,101141.72
2022-07-30T03:42:33.336Z,101140.91
2022-07-30T03:45:03.906Z,101144.66
2022-07-30T03:47:33.309Z,101154.31
2022-07-30T03:50:00.450Z,101136.09
2022-07-30T03:52:28.593Z,101143.22
2022-07-30T03:54:55.665Z,101140.50
2022-07-30T03:57:22.582Z,101141.78
2022-07-30T03:59:51.716Z,101149.53
2022-07-30T04:02:18.582Z,101143.47
2022-07-30T04:04:45.368Z,101145.13
2022-07-30T04:07:11.979Z,101157.25
2022-07-30T04:09:38.600Z,101155.19
2022-07-30T04:12:05.615Z,101162.09
2022-07-30T04:14:44.156Z,101150.78
2022-07-30T04:17:25.999Z,101166.47
2022-07-30T04:20:02.873Z,101163.53
2022-07-30T04:22:35.017Z,101161.03
2022-07-30T04:25:03.400Z,101154.31
2022-07-30T04:27:31.760Z,101156.00
2022-07-30T04:29:58.776Z,101164.38
2022-07-30T04:32:25.681Z,101163.34
2022-07-30T04:34:54.521Z,101164.34
2022-07-30T04:37:23.814Z,101165.22
2022-07-30T04:39:57.811Z,101169.81
2022-07-30T04:42:26.390Z,101168.56
2022-07-30T04:44:53.476Z,101174.22
2022-07-30T04:47:21.128Z,101169.00
2022-07-30T04:49:48.550Z,101169.78
2022-07-30T04:52:18.443Z,101171.50
2022-07-30T04:55:02.425Z,101178.00
2022-07-30T04:57:31.556Z,101171.50
2022-07-30T04:59:58.603Z,101183.22
2022-07-30T05:02:29.403Z,101179.28
2022-07-30T05:04:57.694Z,101179.88
2022-07-30T05:07:26.924Z,101176.72
2022-07-30T05:09:53.558Z,101170.47
2022-07-30T05:12:20.198Z,101184.22
2022-07-30T05:14:48.369Z,101177.53
2022-07-30T05:17:15.088Z,101189.66
2022-07-30T05:19:41.811Z,101180.47
2022-07-30T05:22:08.689Z,101182.13
2022-07-30T05:24:35.290Z,101176.06
2022-07-30T05:27:02.209Z,101175.22
2022-07-30T05:29:29.066Z,101174.59
2022-07-30T05:31:56.694Z,101176.50
2022-07-30T05:34:29.355Z,101181.50
2022-07-30T05:36:55.949Z,101177.31
2022-07-30T05:39:22.669Z,101184.44
2022-07-30T05:41:49.304Z,101181.72
2022-07-30T05:44:19.575Z,101181.50
2022-07-30T05:46:49.211Z,101190.91
2022-07-30T05:49:15.889Z,101196.59
2022-07-30T05:51:43.210Z,101194.91
2022-07-30T05:54:11.370Z,101190.31
2022-07-30T05:56:38.203Z,101195.34
2022-07-30T05:59:04.892Z,101198.91
2022-07-30T06:01:31.617Z,101204.97
2022-07-30T06:03:58.357Z,101202.88
2022-07-30T06:06:25.001Z,101214.19
2022-07-30T06:08:51.809Z,101212.31
2022-07-30T06:11:18.494Z,101208.75
2022-07-30T06:13:45.089Z,101204.97
2022-07-30T06:16:11.862Z,101206.66
2022-07-30T06:18:38.579Z,101206.66
2022-07-30T06:21:05.467Z,101205.41
2022-07-30T06:23:32.070Z,101207.91
2022-07-30T06:25:58.749Z,101201.84
2022-07-30T06:28:37.465Z,101207.91
2022-07-30T06:31:06.310Z,101210.22
2022-07-30T06:33:32.994Z,101206.44
2022-07-30T06:35:59.723Z,101209.59
2022-07-30T06:38:26.374Z,101212.94
2022-07-30T06:40:53.415Z,101219.00
2022-07-30T06:43:21.318Z,101215.44
2022-07-30T06:45:48.295Z,101216.28
2022-07-30T06:48:15.111Z,101220.47
2022-07-30T06:50:41.891Z,101222.56
2022-07-30T06:53:08.753Z,101230.13
2022-07-30T06:55:35.377Z,101233.91
2022-07-30T06:58:02.026Z,101233.47
2022-07-30T07:00:28.671Z,101230.75
2022-07-30T07:02:55.269Z,101234.53
2022-07-30T07:05:22.732Z,101236.41
2022-07-30T07:07:58.642Z,101232.19
2022-07-30T07:10:25.952Z,101244.56
2022-07-30T07:12:52.724Z,101233.25
2022-07-30T07:15:19.531Z,101227.97
2022-07-30T07:17:49.126Z,101235.97
2022-07-30T07:20:15.757Z,101229.25
2022-07-30T07:22:42.436Z,101237.44
2022-07-30T07:25:10.560Z,101241.41
2022-07-30T07:27:37.784Z,101236.16
2022-07-30T07:30:06.418Z,101240.78
2022-07-30T07:32:35.103Z,101238.88
2022-07-30T07:35:01.993Z,101238.47
2022-07-30T07:37:28.625Z,101240.16
2022-07-30T07:39:55.355Z,101236.38
2022-07-30T07:42:22.205Z,101247.50
2022-07-30T07:44:48.905Z,101238.88
2022-07-30T07:47:15.590Z,101244.78
2022-07-30T07:49:42.250Z,101246.00
2022-07-30T07:52:08.918Z,101244.53
2022-07-30T07:54:35.528Z,101242.44
2022-07-30T07:57:04.528Z,101246.44
2022-07-30T07:59:40.392Z,101243.53
2022-07-30T08:02:08.806Z,101248.09
2022-07-30T08:04:36.042Z,101242.47
2022-07-30T08:07:04.240Z,101256.06
2022-07-30T08:09:40.689Z,101242.41
2022-07-30T08:12:11.187Z,101244.31
2022-07-30T08:14:37.843Z,101247.88
2022-07-30T08:17:06.224Z,101243.88
2022-07-30T08:19:33.279Z,101247.44
2022-07-30T08:21:59.953Z,101245.16
2022-07-30T08:24:27.036Z,101245.53
2022-07-30T08:26:53.973Z,101246.38
2022-07-30T08:29:20.602Z,101249.94
2022-07-30T08:31:47.368Z,101243.03
2022-07-30T08:34:14.442Z,101245.97
2022-07-30T08:36:41.349Z,101243.03
2022-07-30T08:39:08.698Z,101240.09
2022-07-30T08:41:36.664Z,101239.03
2022-07-30T08:44:07.885Z,101245.09
2022-07-30T08:46:47.653Z,101242.59
2022-07-30T08:49:15.165Z,101244.69
2022-07-30T08:51:42.435Z,101253.94
2022-07-30T08:54:09.674Z,101249.50
2022-07-30T08:56:36.899Z,101248.06
2022-07-30T08:59:04.107Z,101249.50
2022-07-30T09:01:30.768Z,101254.13
2022-07-30T09:03:57.637Z,101254.34
2022-07-30T09:06:24.431Z,101253.50
2022-07-30T09:08:51.045Z,101254.72
2022-07-30T09:11:17.812Z,101256.00
2022-07-30T09:13:45.082Z,101259.16
2022-07-30T09:16:23.365Z,101262.50
2022-07-30T09:18:52.373Z,101258.16
2022-07-30T09:21:27.263Z,101260.00
2022-07-30T09:24:05.290Z,101262.06
2022-07-30T09:26:51.542Z,101260.84
2022-07-30T09:29:20.653Z,101256.06
2022-07-30T09:32:01.754Z,101254.38
2022-07-30T09:34:32.104Z,101258.75
2022-07-30T09:37:04.060Z,101259.78
2022-07-30T09:39:41.767Z,101248.88
2022-07-30T09:42:22.872Z,101260.00
2022-07-30T09:44:49.851Z,101257.06
2022-07-30T09:47:37.193Z,101256.41
2022-07-30T09:50:08.260Z,101252.22
2022-07-30T09:52:35.162Z,101249.31
2022-07-30T09:55:01.836Z,101247.59
2022-07-30T09:57:30.315Z,101245.91
2022-07-30T09:59:59.704Z,101243.38
2022-07-30T10:02:31.919Z,101249.03
2022-07-30T10:05:14.334Z,101241.47
2022-07-30T10:08:05.542Z,101252.59
2022-07-30T10:10:36.490Z,101245.25
2022-07-30T10:13:17.945Z,101255.13
2022-07-30T10:15:49.693Z,101252.81
2022-07-30T10:18:17.669Z,101254.94
2022-07-30T10:20:45.664Z,101261.84
2022-07-30T10:23:15.867Z,101259.13
2022-07-30T10:25:48.980Z,101259.34
2022-07-30T10:28:22.612Z,101257.69
2022-07-30T10:30:52.135Z,101258.91
2022-07-30T10:33:37.796Z,101261.47
2022-07-30T10:36:10.605Z,101263.34
2022-07-30T10:38:41.552Z,101266.47
2022-07-30T10:41:47.357Z,101262.94
2022-07-30T10:44:57.520Z,101257.06
2022-07-30T10:47:33.305Z,101276.38
2022-07-30T10:50:17.771Z,101262.31
2022-07-30T10:52:57.763Z,101263.97
2022-07-30T10:55:36.969Z,101262.75
2022-07-30T10:58:10.427Z,101261.69
2022-07-30T11:00:58.445Z,101261.91
2022-07-30T11:03:41.592Z,101263.56
2022-07-30T11:06:15.016Z,101265.69
2022-07-30T11:08:45.029Z,101256.81
2022-07-30T11:11:20.681Z,101272.75
2022-07-30T11:14:07.311Z,101256.53
2022-07-30T11:16:33.853Z,101257.16
2022-07-30T11:19:56.467Z,101255.47
2022-07-30T11:22:24.535Z,101256.09
2022-07-30T11:24:51.768Z,101255.28
2022-07-30T11:27:46.560Z,101252.78
2022-07-30T11:30:18.758Z,101260.53
2022-07-30T11:32:50.390Z,101259.72
2022-07-30T11:35:26.300Z,101253.22
2022-07-30T11:38:19.611Z,101251.78
2022-07-30T11:40:48.836Z,101249.66
2022-07-30T11:43:36.124Z,101253.88
2022-07-30T11:46:06.058Z,101259.34
2022-07-30T11:48:33.930Z,101247.38
2022-07-30T11:51:03.829Z,101252.03
2022-07-30T11:53:31.107Z,101252.22
2022-07-30T11:56:00.494Z,101250.09
2022-07-30T11:58:29.829Z,101254.94
2022-07-30T12:01:09.375Z,101250.53
2022-07-30T12:03:41.311Z,101247.84
2022-07-30T12:06:13.773Z,101249.53
2022-07-30T12:08:45.036Z,101253.28
2022-07-30T12:11:11.986Z,101255.78
2022-07-30T12:13:44.916Z,101261.50
2022-07-30T12:16:17.516Z,101261.91
2022-07-30T12:18:46.922Z,101261.50
2022-07-30T12:21:17.726Z,101257.09
2022-07-30T12:23:59.001Z,101260.84
2022-07-30T12:26:35.467Z,101259.38
2022-07-30T12:29:06.862Z,101265.84
2022-07-30T12:31:34.068Z,101261.41
2022-07-30T12:34:05.080Z,101264.94
2022-07-30T12:36:35.282Z,101260.50
2022-07-30T12:39:03.950Z,101261.72
2022-07-30T12:41:49.906Z,101263.84
2022-07-30T12:44:40.159Z,101257.53
2022-07-30T12:47:20.162Z,101269.72
2022-07-30T12:49:49.656Z,101256.28
2022-07-30T12:52:28.616Z,101251.84
2022-07-30T12:54:59.351Z,101260.00
2022-07-30T12:57:26.024Z,101253.53
2022-07-30T13:00:07.340Z,101265.28
2022-07-30T13:02:34.952Z,101263.41
2022-07-30T13:05:11.604Z,101262.09
2022-07-30T13:07:59.004Z,101264.38
2022-07-30T13:10:30.735Z,101262.09
2022-07-30T13:12:58.488Z,101254.13
2022-07-30T13:15:25.297Z,101264.59
2022-07-30T13:17:52.029Z,101264.22
2022-07-30T13:20:18.988Z,101266.94
2022-07-30T13:22:45.818Z,101256.66
2022-07-30T13:25:12.922Z,101258.31
2022-07-30T13:27:39.878Z,101259.34
2022-07-30T13:30:07.119Z,101257.47
2022-07-30T13:32:34.079Z,101262.38
2022-07-30T13:35:01.758Z,101262.63
2022-07-30T13:37:38.488Z,101260.50
2022-07-30T13:40:06.405Z,101265.97
2022-07-30T13:42:33.536Z,101254.53
2022-07-30T13:45:00.437Z,101261.44
2022-07-30T13:47:27.036Z,101255.78
2022-07-30T13:49:54.039Z,101251.69
2022-07-30T13:52:20.727Z,101258.50
2022-07-30T13:54:47.410Z,101256.53
2022-07-30T13:57:14.000Z,101259.75
2022-07-30T13:59:40.625Z,101255.22
2022-07-30T14:02:07.516Z,101250.56
2022-07-30T14:04:34.197Z,101257.00
2022-07-30T14:07:02.284Z,101250.22
2022-07-30T14:09:29.169Z,101257.44
2022-07-30T14:11:55.799Z,101252.59
2022-07-30T14:14:25.437Z,101254.66
2022-07-30T14:16:53.858Z,101255.09
2022-07-30T14:19:24.001Z,101244.94
2022-07-30T14:21:54.763Z,101240.69
2022-07-30T14:24:23.008Z,101240.34
2022-07-30T14:26:54.448Z,101239.56
2022-07-30T14:29:24.243Z,101240.91
2022-07-30T14:31:50.864Z,101237.81
2022-07-30T14:34:19.155Z,101240.53
2022-07-30T14:36:45.805Z,101240.66
2022-07-30T14:39:12.430Z,101238.59
2022-07-30T14:41:39.052Z,101244.13
2022-07-30T14:44:05.738Z,101245.34
2022-07-30T14:46:32.471Z,101246.59
2022-07-30T14:48:59.071Z,101245.66
2022-07-30T14:51:26.783Z,101242.41
2022-07-30T14:53:55.037Z,101244.63
2022-07-30T14:56:25.033Z,101251.31
2022-07-30T14:58:52.287Z,101245.25
2022-07-30T15:01:19.305Z,101239.09
2022-07-30T15:03:46.475Z,101241.53
2022-07-30T15:06:15.316Z,101241.69
2022-07-30T15:08:43.105Z,101241.94
2022-07-30T15:11:09.901Z,101240.63
2022-07-30T15:13:38.545Z,101244.66
2022-07-30T15:16:06.319Z,101245.84
2022-07-30T15:18:33.885Z,101248.03
2022-07-30T15:21:00.506Z,101239.72
2022-07-30T15:23:27.178Z,101240.53
2022-07-30T15:25:53.925Z,101232.56
2022-07-30T15:28:20.683Z,101238.47
2022-07-30T15:30:47.312Z,101240.16
2022-07-30T15:33:13.972Z,101241.78
2022-07-30T15:35:40.601Z,101243.91
2022-07-30T15:38:07.195Z,101239.44
2022-07-30T15:40:33.916Z,101232.59
2022-07-30T15:43:00.566Z,101245.59
2022-07-30T15:45:27.305Z,101237.44
2022-07-30T15:47:53.876Z,101239.91
2022-07-30T15:50:20.558Z,101228.88
2022-07-30T15:52:47.197Z,101238.00
2022-07-30T15:55:13.894Z,101241.56
2022-07-30T15:57:40.981Z,101238.84
2022-07-30T16:00:09.303Z,101241.88
2022-07-30T16:02:37.627Z,101236.56
2022-07-30T16:05:05.254Z,101230.56
2022-07-30T16:07:35.228Z,101233.16
2022-07-30T16:10:01.878Z,101235.28
2022-07-30T16:12:28.533Z,101235.81
2022-07-30T16:14:55.617Z,101233.78
2022-07-30T16:17:22.236Z,101238.84
2022-07-30T16:19:49.038Z,101236.75
2022-07-30T16:22:22.317Z,101236.63
2022-07-30T16:24:50.942Z,101228.84
2022-07-30T16:27:17.777Z,101236.63
2022-07-30T16:29:44.589Z,101233.06
2022-07-30T16:32:11.208Z,101233.50
2022-07-30T16:34:37.795Z,101228.94
2022-07-30T16:37:04.579Z,101230.97
2022-07-30T16:39:31.820Z,101227.88
2022-07-30T16:41:58.554Z,101236.53
2022-07-30T16:44:27.069Z,101235.06
2022-07-30T16:46:53.674Z,101235.72
2022-07-30T16:49:20.349Z,101238.63
2022-07-30T16:51:47.016Z,101229.22
2022-07-30T16:54:13.648Z,101229.00
2022-07-30T16:56:40.289Z,101229.09
2022-07-30T16:59:10.601Z,101229.94
2022-07-30T17:01:40.141Z,101233.72
2022-07-30T17:04:06.777Z,101239.03
2022-07-30T17:06:33.361Z,101237.50
2022-07-30T17:08:59.973Z,101235.22
2022-07-30T17:11:46.149Z,101246.22
2022-07-30T17:14:13.112Z,101250.41
2022-07-30T17:16:40.094Z,101251.72
2022-07-30T17:19:09.423Z,101253.38
2022-07-30T17:21:37.899Z,101260.16
2022-07-30T17:24:11.048Z,101258.72
2022-07-30T17:26:40.469Z,101262.13
2022-07-30T17:29:10.781Z,101262.59
2022-07-30T17:31:43.178Z,101261.16
2022-07-30T17:34:11.019Z,101258.19
2022-07-30T17:36:38.745Z,101260.50
2022-07-30T17:39:05.958Z,101262.41
2022-07-30T17:41:32.981Z,101258.19
2022-07-30T17:43:59.644Z,101259.50
2022-07-30T17:46:27.087Z,101255.06
2022-07-30T17:48:53.870Z,101258.63
2022-07-30T17:51:20.504Z,101259.34
2022-07-30T17:53:47.098Z,101263.09
2022-07-30T17:56:27.059Z,101268.78
2022-07-30T17:58:54.049Z,101265.84
2022-07-30T18:01:20.774Z,101261.22
2022-07-30T18:03:47.472Z,101266.91
2022-07-30T18:06:14.060Z,101261.50
2022-07-30T18:08:40.693Z,101264.84
2022-07-30T18:11:11.896Z,101265.28
2022-07-30T18:13:40.210Z,101257.50
2022-07-30T18:16:07.037Z,101257.94
2022-07-30T18:18:34.457Z,101256.06
2022-07-30T18:21:01.086Z,101262.56
2022-07-30T18:23:32.428Z,101257.13
2022-07-30T18:26:01.684Z,101263.84
2022-07-30T18:28:29.104Z,101265.75
2022-07-30T18:30:55.705Z,101271.81
2022-07-30T18:33:22.618Z,101275.19
2022-07-30T18:35:49.330Z,101274.38
2022-07-30T18:38:16.408Z,101274.75
2022-07-30T18:40:43.084Z,101278.09
2022-07-30T18:43:09.687Z,101278.09
2022-07-30T18:45:37.204Z,101277.25
2022-07-30T18:48:04.416Z,101281.88
2022-07-30T18:50:31.095Z,101291.13
2022-07-30T18:52:57.717Z,101293.25
2022-07-30T18:55:24.325Z,101295.34
2022-07-30T18:57:52.381Z,101292.84
2022-07-30T19:00:34.203Z,101291.78
2022-07-30T19:03:01.986Z,101295.78
2022-07-30T19:05:28.982Z,101294.13
2022-07-30T19:07:58.404Z,101300.22
2022-07-30T19:10:26.664Z,101309.28
2022-07-30T19:12:54.637Z,101305.94
2022-07-30T19:15:21.326Z,101310.72
2022-07-30T19:17:49.328Z,101306.97
2022-07-30T19:20:16.028Z,101315.16
2022-07-30T19:22:43.581Z,101310.13
2022-07-30T19:25:10.868Z,101312.00
2022-07-30T19:27:37.519Z,101318.06
2022-07-30T19:30:04.904Z,101318.28
2022-07-30T19:32:31.536Z,101310.94
2022-07-30T19:34:58.200Z,101316.63
2022-07-30T19:37:24.819Z,101322.28
2022-07-30T19:40:05.387Z,101319.13
2022-07-30T19:42:33.850Z,101316.00
2022-07-30T19:45:01.196Z,101319.56
2022-07-30T19:47:39.446Z,101318.94
2022-07-30T19:50:10.102Z,101319.16
2022-07-30T19:52:37.888Z,101324.41
2022-07-30T19:55:17.176Z,101324.41
2022-07-30T19:57:54.150Z,101320.41
2022-07-30T20:00:25.557Z,101317.69
2022-07-30T20:02:52.962Z,101326.91
2022-07-30T20:05:20.222Z,101327.56
2022-07-30T20:07:51.393Z,101325.28
2022-07-30T20:10:19.431Z,101332.81
2022-07-30T20:12:49.580Z,101326.94
2022-07-30T20:15:17.221Z,101328.63
2022-07-30T20:17:43.892Z,101330.94
2022-07-30T20:20:13.738Z,101329.28
2022-07-30T20:22:40.771Z,101325.09
2022-07-30T20:25:08.920Z,101326.16
2022-07-30T20:27:38.956Z,101325.31
2022-07-30T20:30:08.298Z,101323.59
2022-07-30T20:32:42.330Z,101325.31
2022-07-30T20:35:13.134Z,101318.38
2022-07-30T20:37:55.070Z,101318.78
2022-07-30T20:40:22.994Z,101323.59
2022-07-30T20:42:49.998Z,101320.88
2022-07-30T20:45:16.591Z,101325.50
2022-07-30T20:47:47.208Z,101328.22
2022-07-30T20:50:14.699Z,101319.81
2022-07-30T20:52:46.782Z,101318.13
2022-07-30T20:55:28.436Z,101316.47
2022-07-30T20:58:01.358Z,101322.97
2022-07-30T21:00:41.891Z,101321.91
2022-07-30T21:03:13.744Z,101319.44
2022-07-30T21:05:43.042Z,101317.13
2022-07-30T21:08:12.308Z,101316.28
2022-07-30T21:10:40.930Z,101317.53
2022-07-30T21:13:11.410Z,101318.78
2022-07-30T21:15:45.469Z,101319.84
2022-07-30T21:18:25.254Z,101313.53
2022-07-30T21:20:53.105Z,101313.31
2022-07-30T21:23:22.476Z,101313.53
2022-07-30T21:26:02.096Z,101319.00
2022-07-30T21:28:30.209Z,101315.66
2022-07-30T21:31:02.450Z,101313.16
2022-07-30T21:33:31.490Z,101316.72
2022-07-30T21:35:59.206Z,101310.63
2022-07-30T21:38:26.713Z,101311.25
2022-07-30T21:40:53.854Z,101314.38
2022-07-30T21:43:28.701Z,101311.88
2022-07-30T21:45:56.548Z,101317.97
2022-07-30T21:48:24.784Z,101319.84
2022-07-30T21:50:52.790Z,101317.75
2022-07-30T21:53:29.794Z,101318.16
2022-07-30T21:56:06.237Z,101326.13
2022-07-30T21:58:33.004Z,101327.19
2022-07-30T22:01:17.217Z,101314.81
2022-07-30T22:04:02.872Z,101322.78
2022-07-30T22:06:34.033Z,101322.56
2022-07-30T22:09:03.027Z,101327.19
2022-07-30T22:14:17.183Z,101325.28
2022-07-30T22:16:46.110Z,101327.81
2022-07-30T22:19:14.683Z,101324.25
2022-07-30T22:21:42.744Z,101320.88
2022-07-30T22:24:29.806Z,101323.63
2022-07-30T22:27:10.806Z,101316.50
2022-07-30T22:29:43.022Z,101320.06
2022-07-30T22:32:10.846Z,101320.25
2022-07-30T22:34:37.724Z,101317.13
2022-07-30T22:37:04.599Z,101316.28
2022-07-30T22:39:50.772Z,101319.84
2022-07-30T22:42:24.433Z,101326.13
2022-07-30T22:44:54.669Z,101320.69
2022-07-30T22:47:50.259Z,101319.84
2022-07-30T22:50:09.220Z,101314.81
2022-07-30T22:52:39.629Z,101314.38
2022-07-30T22:55:08.955Z,101315.66
2022-07-30T22:57:37.829Z,101300.56
2022-07-30T23:00:11.238Z,101309.38
2022-07-30T23:02:39.959Z,101303.06
2022-07-30T23:05:07.975Z,101303.06
2022-07-30T23:07:39.907Z,101305.78
2022-07-30T23:10:16.977Z,101300.56
2022-07-30T23:12:32.822Z,101330.53
2022-07-30T23:12:48.475Z,101299.72
2022-07-30T23:15:15.445Z,101300.34
2022-07-30T23:17:43.543Z,101292.41
2022-07-30T23:20:13.188Z,101296.56
2022-07-30T23:22:39.971Z,101290.94
2022-07-30T23:25:08.198Z,101284.66
2022-07-30T23:27:34.797Z,101280.84
2022-07-30T23:30:01.531Z,101280.03
2022-07-30T23:32:28.263Z,101282.53
2022-07-30T23:34:54.876Z,101284.63
2022-07-30T23:37:21.854Z,101285.91
2022-07-30T23:39:48.439Z,101282.75
2022-07-30T23:42:15.222Z,101284.22
2022-07-30T23:44:42.033Z,101283.38
2022-07-30T23:47:08.654Z,101277.09
2022-07-30T23:49:35.477Z,101280.03
2022-07-30T23:52:02.093Z,101274.16
2022-07-30T23:54:28.981Z,101278.38
2022-07-30T23:56:56.271Z,101276.22
2022-07-30T23:59:40.551Z,101275.16
